Time;durP1;ratioP1;P1;durP2;ratioP2;P2;SDS_P1;SDS_P2;PMS_P1;PMS_P2;Temp;Humidity;BMP_temperature;BMP_pressure;BME280_temperature;BME280_humidity;BME280_pressure;Samples;Min_cycle;Max_cycle;Signal;HPM_P1;HPM_P2
2021/12/20 00:01:51;;;;;;;31.10;29.20;;;;;;;19.40;44.52;102683.41;4922171;29;20382;-83
2021/12/20 00:04:17;;;;;;;34.28;32.47;;;;;;;19.40;44.40;102660.63;4916817;29;20127;-82
2021/12/20 00:06:42;;;;;;;30.33;28.73;;;;;;;19.41;44.66;102652.16;4887627;29;20114;-83
2021/12/20 00:09:08;;;;;;;30.80;29.25;;;;;;;19.40;44.58;102656.00;4926393;29;20451;-83
2021/12/20 00:11:34;;;;;;;32.40;30.60;;;;;;;19.40;44.59;102645.03;4929371;29;20040;-83
2021/12/20 00:13:59;;;;;;;31.83;30.02;;;;;;;19.41;44.67;102648.59;4901517;29;20452;-82
2021/12/20 00:16:24;;;;;;;33.25;31.38;;;;;;;19.39;44.75;102648.84;4916455;29;20048;-82
2021/12/20 00:18:51;;;;;;;30.70;29.00;;;;;;;19.41;44.66;102646.69;4923121;29;20035;-82
2021/12/20 00:21:16;;;;;;;30.90;29.33;;;;;;;19.40;44.88;102652.41;4935204;29;20400;-81
2021/12/20 00:23:42;;;;;;;30.77;29.13;;;;;;;19.40;44.67;102644.19;4930633;29;20465;-82
2021/12/20 00:26:09;;;;;;;31.35;29.58;;;;;;;19.40;44.68;102634.06;4935565;29;20389;-82
2021/12/20 00:28:35;;;;;;;32.97;31.17;;;;;;;19.39;44.71;102632.41;4935225;29;20055;-82
2021/12/20 00:31:00;;;;;;;30.85;29.25;;;;;;;19.40;44.56;102635.97;4937139;29;20051;-82
2021/12/20 00:33:28;;;;;;;34.05;31.70;;;;;;;19.40;44.60;102633.22;4922969;29;20044;-82
2021/12/20 00:35:54;;;;;;;30.38;28.65;;;;;;;19.40;44.72;102634.06;4917971;29;20059;-83
2021/12/20 00:41:03;;;;;;;31.75;30.13;;;;;;;19.39;44.72;102640.63;4918071;29;20095;-83
2021/12/20 00:43:28;;;;;;;31.27;29.67;;;;;;;19.38;44.43;102638.97;4919656;29;20044;-82
2021/12/20 00:45:54;;;;;;;30.73;29.10;;;;;;;19.39;44.54;102648.84;4902715;29;20048;-82
2021/12/20 00:48:19;;;;;;;32.17;30.50;;;;;;;19.38;44.21;102641.72;4918937;29;20039;-81
2021/12/20 00:50:45;;;;;;;31.40;29.60;;;;;;;19.38;44.36;102630.75;4919709;29;20396;-82
2021/12/20 00:53:12;;;;;;;31.90;30.30;;;;;;;19.38;44.42;102629.94;4932820;29;20521;-82
2021/12/20 00:55:39;;;;;;;33.70;31.95;;;;;;;19.37;44.46;102637.31;4928065;29;20032;-82
2021/12/20 00:58:05;;;;;;;31.65;29.98;;;;;;;19.38;44.34;102633.50;4936652;29;20035;-82
2021/12/20 01:00:35;;;;;;;32.92;31.13;;;;;;;19.38;44.45;102628.00;4918382;29;20043;-83
2021/12/20 01:03:01;;;;;;;34.03;32.15;;;;;;;19.38;44.76;102632.69;4921076;29;20068;-84
2021/12/20 01:05:27;;;;;;;32.47;30.70;;;;;;;19.37;44.44;102629.09;4921634;29;20040;-82
2021/12/20 01:07:56;;;;;;;33.03;31.23;;;;;;;19.36;44.37;102619.22;4934365;29;20500;-82
2021/12/20 01:10:23;;;;;;;31.50;29.77;;;;;;;19.37;44.29;102620.03;4919083;29;20074;-82
2021/12/20 01:12:50;;;;;;;31.42;29.85;;;;;;;19.37;44.19;102628.25;4911420;29;20040;-82
2021/12/20 01:15:48;;;;;;;31.60;29.90;;;;;;;19.37;44.56;102629.09;4900784;29;20469;-82
2021/12/20 01:18:14;;;;;;;30.38;28.77;;;;;;;19.35;44.78;102624.94;4917924;29;20048;-83
2021/12/20 01:20:41;;;;;;;33.33;31.42;;;;;;;19.34;44.71;102618.63;4926647;29;20378;-82
2021/12/20 01:23:08;;;;;;;32.50;30.80;;;;;;;19.34;44.48;102621.38;4935466;29;20027;-82
2021/12/20 01:25:34;;;;;;;32.83;30.80;;;;;;;19.35;44.61;102628.53;4935701;29;20095;-83
2021/12/20 01:28:00;;;;;;;32.17;30.50;;;;;;;19.35;44.35;102644.97;4902909;29;20445;-86
2021/12/20 01:30:26;;;;;;;31.38;29.63;;;;;;;19.35;44.58;102634.00;4924861;29;20515;-81
2021/12/20 01:32:52;;;;;;;32.28;30.08;;;;;;;19.35;44.56;102638.66;4918630;29;20477;-82
2021/12/20 01:35:19;;;;;;;32.15;30.55;;;;;;;19.35;44.27;102644.13;4900476;29;20034;-82
2021/12/20 01:37:44;;;;;;;32.38;30.67;;;;;;;19.34;44.45;102639.75;4925708;29;20054;-82
2021/12/20 01:40:13;;;;;;;31.70;29.98;;;;;;;19.34;44.59;102637.81;4918849;29;20408;-82
2021/12/20 01:42:38;;;;;;;;;;;;;;;19.32;44.64;102633.69;4934549;29;20079;-82
2021/12/20 01:45:10;;;;;;;30.70;28.98;;;;;;;19.32;44.51;102625.47;4920003;29;20333;-82
2021/12/20 01:47:37;;;;;;;31.35;29.75;;;;;;;19.33;44.39;102621.66;4891259;29;20027;-82
2021/12/20 01:50:12;;;;;;;30.23;28.52;;;;;;;19.32;44.55;102634.50;4935750;29;20039;-82
2021/12/20 01:52:43;;;;;;;33.22;31.13;;;;;;;19.32;44.75;102622.72;4917980;29;20035;-82
2021/12/20 01:55:19;;;;;;;31.13;29.23;;;;;;;19.32;44.93;102619.97;4903965;29;20297;-82
2021/12/20 01:57:45;;;;;;;32.50;30.58;;;;;;;19.32;44.24;102628.19;4931547;29;20075;-82
2021/12/20 02:00:15;;;;;;;32.17;30.48;;;;;;;19.32;44.33;102622.72;4935322;29;20464;-82
2021/12/20 02:02:43;;;;;;;32.40;30.60;;;;;;;19.31;44.57;102629.28;4916971;29;20067;-82
2021/12/20 02:05:23;;;;;;;31.67;29.85;;;;;;;19.31;44.30;102619.16;4909896;29;20048;-82
2021/12/20 02:08:02;;;;;;;31.90;30.20;;;;;;;19.31;44.53;102630.13;4909619;29;20044;-82
2021/12/20 02:10:27;;;;;;;30.42;28.83;;;;;;;19.31;44.25;102621.06;4934025;29;20361;-82
2021/12/20 02:12:53;;;;;;;32.20;30.50;;;;;;;19.31;44.67;102621.91;4932001;29;20042;-83
2021/12/20 02:15:19;;;;;;;31.67;30.02;;;;;;;19.31;44.51;102627.38;4922138;29;20044;-82
2021/12/20 02:17:44;;;;;;;32.40;30.63;;;;;;;19.30;44.42;102614.75;4916140;29;20052;-82
2021/12/20 02:20:25;;;;;;;31.27;29.58;;;;;;;19.31;44.43;102615.59;4898831;29;20039;-83
2021/12/20 02:22:55;;;;;;;31.02;29.38;;;;;;;19.30;44.31;102613.91;4915202;29;20480;-82
2021/12/20 02:25:20;;;;;;;31.20;29.70;;;;;;;19.30;44.23;102608.44;4923080;29;20122;-82
2021/12/20 02:27:46;;;;;;;32.40;30.60;;;;;;;19.30;44.20;102606.53;4910127;29;20131;-83
2021/12/20 02:30:35;;;;;;;31.52;29.75;;;;;;;19.30;44.43;102605.69;4917222;29;20039;-84
2021/12/20 02:38:28;;;;;;;31.33;29.63;;;;;;;19.29;44.47;102607.63;4919935;29;20054;-82
2021/12/20 02:40:59;;;;;;;31.80;29.75;;;;;;;19.29;44.39;102604.06;4920674;29;20401;-82
2021/12/20 02:43:25;;;;;;;32.38;30.45;;;;;;;19.29;44.17;102613.09;4913645;29;20118;-82
2021/12/20 02:45:54;;;;;;;32.70;31.00;;;;;;;19.29;44.28;102604.88;4913384;29;20605;-82
2021/12/20 02:48:19;;;;;;;32.08;30.38;;;;;;;19.29;44.45;102609.53;4924882;29;20036;-83
2021/12/20 02:50:45;;;;;;;33.13;31.02;;;;;;;19.29;44.08;102604.88;4898581;29;20036;-83
2021/12/20 02:53:10;;;;;;;31.75;29.77;;;;;;;19.28;44.32;102603.25;4915661;29;20028;-82
2021/12/20 02:55:35;;;;;;;32.53;30.70;;;;;;;19.28;44.20;102602.38;4915094;29;20413;-82
2021/12/20 02:58:01;;;;;;;31.70;30.10;;;;;;;19.28;44.53;102597.75;4898671;29;20044;-82
2021/12/20 03:00:26;;;;;;;31.52;29.88;;;;;;;19.28;44.34;102607.88;4898845;29;20071;-82
2021/12/20 03:02:51;;;;;;;32.38;30.65;;;;;;;19.27;44.40;102601.56;4914915;29;20490;-82
2021/12/20 03:05:17;;;;;;;33.03;31.42;;;;;;;19.28;44.34;102610.59;4883265;29;20051;-82
2021/12/20 03:07:48;;;;;;;32.30;30.60;;;;;;;19.27;44.39;102601.56;4900886;29;20488;-82
2021/12/20 03:10:14;;;;;;;32.05;30.25;;;;;;;19.27;44.38;102600.75;4926863;29;20702;-82
2021/12/20 03:12:40;;;;;;;33.25;31.38;;;;;;;19.27;44.38;102603.47;4900983;29;20477;-82
2021/12/20 03:15:15;;;;;;;31.65;29.75;;;;;;;19.26;44.22;102608.13;4934461;29;20035;-82
2021/12/20 03:17:40;;;;;;;33.38;31.48;;;;;;;19.26;44.42;102613.63;4932054;29;20067;-82
2021/12/20 03:20:06;;;;;;;32.83;30.85;;;;;;;19.27;44.40;102603.47;4917233;29;20122;-82
2021/12/20 03:22:32;;;;;;;31.70;30.10;;;;;;;19.26;44.15;102599.09;4911296;29;20508;-82
2021/12/20 03:24:58;;;;;;;32.17;30.42;;;;;;;19.27;44.47;102598.00;4924343;29;20036;-82
2021/12/20 03:27:23;;;;;;;32.35;30.65;;;;;;;19.25;44.47;102592.75;4915410;29;20032;-82
2021/12/20 03:29:48;;;;;;;33.05;31.23;;;;;;;19.25;44.38;102603.72;4928610;29;20504;-82
2021/12/20 03:32:14;;;;;;;32.17;30.27;;;;;;;19.25;44.23;102606.47;4933436;29;20031;-82
2021/12/20 03:34:39;;;;;;;32.33;30.25;;;;;;;19.25;44.46;102606.47;4922803;29;20115;-82
2021/12/20 03:37:05;;;;;;;32.40;30.58;;;;;;;19.25;44.68;102598.25;4925628;29;20044;-82
2021/12/20 03:39:30;;;;;;;31.15;29.45;;;;;;;19.25;44.13;102598.25;4916654;29;20063;-82
2021/12/20 03:41:56;;;;;;;31.67;29.95;;;;;;;19.25;44.16;102600.97;4931915;29;20161;-82
2021/12/20 03:44:21;;;;;;;30.35;28.75;;;;;;;19.24;44.21;102597.44;4931081;29;20031;-82
2021/12/20 03:46:47;;;;;;;32.42;30.50;;;;;;;19.25;44.57;102598.25;4932218;29;20036;-82
2021/12/20 03:49:12;;;;;;;30.80;29.20;;;;;;;19.24;44.04;102599.34;4920046;29;20040;-82
2021/12/20 03:51:38;;;;;;;31.33;29.63;;;;;;;19.24;44.36;102605.63;4914644;29;20036;-81
2021/12/20 03:54:05;;;;;;;31.88;30.08;;;;;;;19.24;44.30;102593.88;4917615;29;20421;-82
2021/12/20 03:56:30;;;;;;;30.90;29.35;;;;;;;19.23;44.45;102600.44;4930888;29;20044;-82
2021/12/20 03:58:56;;;;;;;32.63;30.77;;;;;;;19.23;44.49;102603.19;4932089;29;20035;-82
2021/12/20 04:01:22;;;;;;;30.45;28.65;;;;;;;19.23;44.23;102604.00;4933731;29;20031;-82
2021/12/20 04:03:49;;;;;;;32.30;30.55;;;;;;;19.23;44.46;102609.47;4931893;29;20444;-82
2021/12/20 04:06:15;;;;;;;31.35;29.58;;;;;;;19.22;44.25;102613.28;4928200;29;20477;-82
2021/12/20 04:08:42;;;;;;;31.08;29.25;;;;;;;19.23;44.40;102614.13;4914569;29;20036;-82
2021/12/20 04:11:08;;;;;;;31.08;29.35;;;;;;;19.22;44.36;102601.50;4915281;29;20032;-82
2021/12/20 04:13:34;;;;;;;30.98;29.42;;;;;;;19.22;44.06;102604.25;4915226;29;20492;-82
2021/12/20 04:15:59;;;;;;;30.05;28.45;;;;;;;19.21;44.25;102606.16;4918727;29;20040;-82
2021/12/20 04:18:26;;;;;;;31.58;29.98;;;;;;;19.22;44.28;102601.50;4915142;29;20036;-82
2021/12/20 04:20:52;;;;;;;32.30;30.50;;;;;;;19.21;44.42;102605.34;4920427;29;20042;-82
2021/12/20 04:23:18;;;;;;;31.45;29.85;;;;;;;19.22;44.24;102604.25;4931425;29;20112;-82
2021/12/20 04:25:43;;;;;;;32.03;30.30;;;;;;;19.21;44.25;102602.59;4927841;29;20465;-82
2021/12/20 04:28:09;;;;;;;31.83;29.95;;;;;;;19.21;44.51;102599.84;4921760;29;20067;-83
2021/12/20 04:30:34;;;;;;;32.70;31.00;;;;;;;19.21;44.41;102602.59;4912950;29;20564;-82
2021/12/20 04:33:00;;;;;;;32.72;31.02;;;;;;;19.19;44.27;102597.38;4932838;29;20027;-82
2021/12/20 04:35:26;;;;;;;31.67;29.98;;;;;;;19.21;44.42;102605.34;4933738;29;20457;-82
2021/12/20 04:37:52;;;;;;;32.22;30.40;;;;;;;19.21;44.52;102602.59;4927085;29;20052;-82
2021/12/20 04:40:21;;;;;;;31.48;29.67;;;;;;;19.20;44.49;102600.94;4917980;29;20499;-82
2021/12/20 04:42:53;;;;;;;31.45;29.77;;;;;;;19.20;44.44;102600.94;4917693;29;20032;-82
2021/12/20 04:45:18;;;;;;;31.88;30.27;;;;;;;19.19;44.37;102600.09;4918265;29;20083;-81
2021/12/20 04:47:44;;;;;;;32.00;30.10;;;;;;;19.19;44.27;102597.38;4919403;29;20024;-82
2021/12/20 04:50:11;;;;;;;31.90;30.20;;;;;;;19.19;44.20;102596.53;4933549;29;20106;-82
2021/12/20 04:52:36;;;;;;;31.35;29.65;;;;;;;19.19;44.37;102599.28;4920202;29;20035;-82
2021/12/20 04:55:04;;;;;;;31.55;29.55;;;;;;;19.19;44.36;102593.81;4914587;29;20044;-82
2021/12/20 04:57:29;;;;;;;31.73;30.13;;;;;;;19.19;44.19;102596.53;4932428;29;20043;-82
2021/12/20 04:59:55;;;;;;;32.58;30.88;;;;;;;19.17;44.32;102594.03;4922345;29;20047;-82
2021/12/20 05:02:20;;;;;;;31.33;29.52;;;;;;;19.18;44.35;102597.63;4919326;29;20536;-82
2021/12/20 05:04:45;;;;;;;31.95;30.13;;;;;;;19.16;44.21;102597.88;4918585;29;20042;-82
2021/12/20 05:07:11;;;;;;;31.80;30.00;;;;;;;19.17;44.32;102606.91;4901923;29;20068;-82
2021/12/20 05:09:39;;;;;;;32.33;30.42;;;;;;;19.18;44.15;102605.84;4912386;29;20524;-82
2021/12/20 05:12:13;;;;;;;31.10;29.40;;;;;;;19.17;44.40;102598.69;4917282;29;20048;-82
2021/12/20 05:14:42;;;;;;;32.40;30.70;;;;;;;19.16;44.26;102602.53;4914499;29;20427;-82
2021/12/20 05:17:13;;;;;;;30.73;29.23;;;;;;;19.17;44.45;102609.66;4917150;29;20051;-82
2021/12/20 05:19:40;;;;;;;30.77;29.13;;;;;;;19.16;44.42;102617.06;4925930;29;20036;-83
2021/12/20 05:22:06;;;;;;;31.20;29.38;;;;;;;19.15;44.43;102607.19;4918991;29;20498;-83
2021/12/20 05:24:31;;;;;;;31.27;29.38;;;;;;;19.15;44.10;102604.47;4905923;29;20043;-82
2021/12/20 05:26:57;;;;;;;32.90;30.85;;;;;;;19.16;44.40;102606.09;4916624;29;20028;-82
2021/12/20 05:29:24;;;;;;;31.75;29.95;;;;;;;19.16;44.31;102614.31;4920443;29;20496;-82
2021/12/20 05:31:50;;;;;;;31.20;29.50;;;;;;;19.15;44.32;102614.56;4926572;29;20118;-81
2021/12/20 05:34:16;;;;;;;32.95;31.10;;;;;;;19.15;44.38;102615.41;4902420;29;20084;-82
2021/12/20 05:36:41;;;;;;;32.83;31.00;;;;;;;19.16;44.19;102613.50;4918161;29;20067;-82
2021/12/20 05:39:07;;;;;;;31.05;29.35;;;;;;;19.15;44.08;102614.56;4899854;29;20080;-82
2021/12/20 05:41:32;;;;;;;30.88;29.00;;;;;;;19.13;44.26;102614.84;4923804;29;20033;-81
2021/12/20 05:43:57;;;;;;;31.38;29.58;;;;;;;19.14;44.20;102619.22;4917987;29;20040;-82
2021/12/20 05:46:23;;;;;;;30.92;29.33;;;;;;;19.14;44.21;102610.19;4918038;29;20036;-82
2021/12/20 05:48:48;;;;;;;31.35;29.40;;;;;;;19.13;44.41;102611.28;4932102;29;20031;-82
2021/12/20 05:51:14;;;;;;;30.95;29.05;;;;;;;19.14;44.25;102621.13;4912392;29;20043;-82
2021/12/20 05:53:39;;;;;;;29.88;28.27;;;;;;;19.13;44.40;102624.97;4912041;29;22129;-83
2021/12/20 05:56:04;;;;;;;30.50;28.70;;;;;;;19.12;44.47;102618.63;4934839;29;20112;-82
2021/12/20 05:58:30;;;;;;;29.67;27.83;;;;;;;19.14;44.20;102621.13;4906039;29;20393;-82
2021/12/20 06:00:56;;;;;;;31.02;29.27;;;;;;;19.13;44.14;102614.00;4917735;29;20032;-82
2021/12/20 06:03:21;;;;;;;30.17;28.33;;;;;;;19.14;44.29;102618.41;4922231;29;20080;-82
2021/12/20 06:05:46;;;;;;;30.02;28.33;;;;;;;19.13;44.49;102619.50;4899921;29;20044;-82
2021/12/20 06:08:12;;;;;;;30.98;29.38;;;;;;;19.12;44.55;102612.34;4922278;29;20067;-84
2021/12/20 06:10:37;;;;;;;29.70;28.08;;;;;;;19.11;44.30;102611.50;4935441;29;20051;-82
2021/12/20 06:13:04;;;;;;;31.05;29.35;;;;;;;19.11;44.20;102619.72;4928646;29;20458;-82
2021/12/20 06:15:30;;;;;;;30.92;28.85;;;;;;;19.12;44.34;102620.56;4904574;29;20118;-82
2021/12/20 06:17:56;;;;;;;30.98;29.25;;;;;;;19.12;44.23;102623.28;4928063;29;20119;-81
2021/12/20 06:20:21;;;;;;;30.67;28.90;;;;;;;19.11;44.38;102621.66;4900905;29;20400;-82
2021/12/20 06:22:47;;;;;;;31.75;30.13;;;;;;;19.11;44.31;102624.38;4915844;29;20477;-81
2021/12/20 06:25:12;;;;;;;30.38;28.67;;;;;;;19.11;44.36;102627.13;4928533;29;20102;-82
2021/12/20 06:27:38;;;;;;;30.50;28.75;;;;;;;19.10;44.54;102622.72;4883274;29;20507;-82
2021/12/20 06:30:08;;;;;;;32.80;30.80;;;;;;;19.10;44.48;102618.09;4915099;29;20063;-82
2021/12/20 06:32:41;;;;;;;30.05;28.45;;;;;;;19.10;44.36;102625.44;4929992;29;20074;-81
2021/12/20 06:35:08;;;;;;;31.73;29.90;;;;;;;19.10;44.46;102629.03;4933234;29;20481;-81
2021/12/20 06:37:34;;;;;;;31.33;29.73;;;;;;;19.09;44.59;102621.91;4921348;29;20040;-80
2021/12/20 06:40:00;;;;;;;32.20;30.50;;;;;;;19.09;44.29;102621.06;4934230;29;20082;-80
2021/12/20 06:42:25;;;;;;;30.00;28.30;;;;;;;19.09;44.30;102627.38;4923096;29;20043;-81
2021/12/20 06:44:51;;;;;;;31.90;29.70;;;;;;;19.09;44.85;102627.38;4931206;29;20032;-81
2021/12/20 06:47:18;;;;;;;31.50;29.40;;;;;;;19.10;45.45;102633.66;4935022;29;20576;-79
2021/12/20 06:49:44;;;;;;;35.92;29.25;;;;;;;19.11;45.98;102638.09;4934379;29;20038;-82
2021/12/20 06:52:09;;;;;;;50.80;30.23;;;;;;;19.09;46.31;102632.84;4911776;29;20407;-82
2021/12/20 06:54:35;;;;;;;30.08;28.05;;;;;;;19.11;46.46;102635.34;4927807;29;20091;-83
2021/12/20 06:57:01;;;;;;;32.25;30.17;;;;;;;19.10;46.39;102633.66;4913291;29;20072;-84
2021/12/20 06:59:27;;;;;;;32.42;30.02;;;;;;;19.10;46.36;102631.78;4908775;29;20465;-84
2021/12/20 07:01:52;;;;;;;31.70;29.77;;;;;;;19.11;46.25;102627.94;4922876;29;20083;-83
2021/12/20 07:04:18;;;;;;;30.50;28.52;;;;;;;19.10;46.09;102623.56;4919679;29;20043;-83
2021/12/20 07:06:43;;;;;;;31.90;29.73;;;;;;;19.10;46.28;102629.03;4910462;29;20027;-83
2021/12/20 07:09:10;;;;;;;31.73;29.75;;;;;;;19.10;46.10;102630.94;4931629;29;20048;-82
2021/12/20 07:11:36;;;;;;;30.90;29.27;;;;;;;19.10;46.04;102633.66;4932496;29;20027;-82
2021/12/20 07:14:01;;;;;;;32.03;30.13;;;;;;;19.10;46.19;102628.19;4930384;29;20063;-82
2021/12/20 07:16:32;;;;;;;31.95;29.75;;;;;;;19.10;45.78;102628.19;4934131;29;20370;-82
2021/12/20 07:18:57;;;;;;;30.25;28.17;;;;;;;19.09;45.89;102630.09;4929493;29;20036;-82
2021/12/20 07:21:23;;;;;;;30.45;28.70;;;;;;;19.10;45.90;102636.41;4922872;29;20073;-82
2021/12/20 07:23:48;;;;;;;31.40;29.00;;;;;;;19.09;46.21;102643.81;4928529;29;20028;-82
2021/12/20 07:26:13;;;;;;;31.75;29.85;;;;;;;19.09;45.92;102638.31;4921566;29;20035;-81
2021/12/20 07:28:41;;;;;;;30.70;29.00;;;;;;;19.08;46.03;102631.22;4932428;29;20627;-81
2021/12/20 07:31:07;;;;;;;31.95;29.85;;;;;;;19.08;46.30;102642.16;4919311;29;20086;-80
2021/12/20 07:33:32;;;;;;;31.05;29.23;;;;;;;19.09;46.09;102651.19;4915320;29;20096;-80
2021/12/20 07:35:58;;;;;;;30.90;29.10;;;;;;;19.09;46.09;102646.53;4916765;29;20044;-81
2021/12/20 07:38:24;;;;;;;30.38;28.20;;;;;;;19.09;46.12;102638.31;4928094;29;20040;-83
2021/12/20 07:40:50;;;;;;;30.75;28.80;;;;;;;19.10;46.43;102644.63;4911732;29;20040;-83
2021/12/20 07:43:18;;;;;;;31.35;29.00;;;;;;;19.10;46.41;102652.84;4930137;29;20040;-85
2021/12/20 07:45:48;;;;;;;32.72;30.30;;;;;;;19.10;46.38;102650.97;4928140;29;20047;-86
2021/12/20 07:48:16;;;;;;;34.35;32.20;;;;;;;19.12;46.68;102647.94;4928632;29;20024;-83
2021/12/20 07:50:41;;;;;;;31.70;29.80;;;;;;;19.12;46.80;102645.22;4926918;29;20035;-85
2021/12/20 07:53:06;;;;;;;33.08;30.83;;;;;;;19.13;46.82;102658.66;4930128;29;20046;-81
2021/12/20 07:55:32;;;;;;;32.00;29.48;;;;;;;19.13;47.12;102653.19;4925922;29;20047;-87
2021/12/20 07:57:58;;;;;;;31.45;29.60;;;;;;;19.14;47.28;102656.75;4912656;29;20070;-83
2021/12/20 08:00:23;;;;;;;32.20;30.05;;;;;;;19.16;47.34;102657.31;4928568;29;20448;-83
2021/12/20 08:02:48;;;;;;;32.80;30.48;;;;;;;19.16;47.74;102657.31;4929912;29;20482;-81
2021/12/20 08:05:15;;;;;;;33.08;30.70;;;;;;;19.17;47.29;102658.97;4927875;29;20481;-80
2021/12/20 08:07:41;;;;;;;31.80;29.50;;;;;;;19.17;47.57;102658.97;4926827;29;20071;-80
2021/12/20 08:10:07;;;;;;;32.40;30.35;;;;;;;19.18;47.58;102660.66;4930294;29;20046;-83
2021/12/20 08:12:33;;;;;;;34.30;31.63;;;;;;;19.18;47.73;102663.38;4916129;29;20449;-81
2021/12/20 08:14:59;;;;;;;31.10;29.40;;;;;;;19.19;47.37;102665.84;4931550;29;20068;-82
2021/12/20 08:17:24;;;;;;;32.13;29.50;;;;;;;19.21;47.52;102657.41;4932828;29;20135;-81
2021/12/20 08:19:49;;;;;;;32.97;30.25;;;;;;;19.21;47.30;102655.47;4915925;29;20101;-82
2021/12/20 08:22:15;;;;;;;32.40;30.02;;;;;;;19.23;47.30;102657.97;4928725;29;20135;-80
2021/12/20 08:24:40;;;;;;;33.83;31.45;;;;;;;19.23;47.16;102667.00;4926569;29;20126;-81
2021/12/20 08:27:06;;;;;;;32.40;30.45;;;;;;;19.24;47.09;102665.09;4929137;29;20064;-80
2021/12/20 08:29:31;;;;;;;33.08;30.75;;;;;;;19.24;46.77;102667.84;4930722;29;20142;-81
2021/12/20 08:32:02;;;;;;;33.17;30.98;;;;;;;19.25;46.62;102669.47;4929837;29;20435;-81
2021/12/20 08:34:30;;;;;;;31.58;29.77;;;;;;;19.26;46.54;102659.38;4927152;29;20027;-85
2021/12/20 08:36:57;;;;;;;31.35;29.48;;;;;;;19.27;46.74;102659.09;4932221;29;20072;-83
2021/12/20 08:39:22;;;;;;;33.30;31.00;;;;;;;19.28;46.52;102662.66;4927768;29;20044;-82
2021/12/20 08:41:47;;;;;;;31.92;30.02;;;;;;;19.29;46.39;102670.63;4931131;29;20035;-82
2021/12/20 08:44:13;;;;;;;36.35;33.60;;;;;;;19.30;46.40;102669.53;4930744;29;20051;-82
2021/12/20 08:46:39;;;;;;;33.42;31.27;;;;;;;19.31;46.24;102668.47;4931032;29;20421;-81
2021/12/20 08:49:05;;;;;;;32.47;30.63;;;;;;;19.32;46.33;102667.38;4929032;29;20059;-82
2021/12/20 08:51:30;;;;;;;33.30;31.33;;;;;;;19.33;46.34;102674.53;4931274;29;20328;-81
2021/12/20 08:53:56;;;;;;;31.55;29.20;;;;;;;19.35;46.33;102677.00;4930762;29;20047;-81
2021/12/20 08:56:22;;;;;;;31.88;29.75;;;;;;;19.37;45.87;102674.84;4929907;29;20035;-81
2021/12/20 08:58:47;;;;;;;32.10;30.17;;;;;;;19.39;46.22;102680.91;4914316;29;20039;-81
2021/12/20 09:01:13;;;;;;;32.13;29.98;;;;;;;19.39;46.26;102680.91;4927772;29;20748;-81
2021/12/20 09:03:39;;;;;;;32.25;30.05;;;;;;;19.41;46.38;102681.47;4925705;29;20835;-81
2021/12/20 09:06:05;;;;;;;31.63;29.58;;;;;;;19.41;46.16;102685.06;4929175;29;20032;-84
2021/12/20 09:08:31;;;;;;;33.30;31.10;;;;;;;19.44;46.06;102683.72;4913072;29;20063;-84
2021/12/20 09:10:57;;;;;;;32.13;29.90;;;;;;;19.44;45.79;102692.75;4911783;29;20043;-82
2021/12/20 09:13:23;;;;;;;34.95;32.50;;;;;;;19.45;45.84;102686.22;4911961;29;20054;-82
2021/12/20 09:15:48;;;;;;;32.72;30.52;;;;;;;19.46;45.79;102685.09;4927419;29;20102;-79
2021/12/20 09:18:14;;;;;;;33.58;31.38;;;;;;;19.48;45.47;102684.00;4928446;29;20051;-81
2021/12/20 09:20:40;;;;;;;32.65;30.67;;;;;;;19.49;45.36;102686.50;4928844;29;20032;-81
2021/12/20 09:23:11;;;;;;;32.55;30.40;;;;;;;19.50;45.04;102688.16;4925445;29;20080;-82
2021/12/20 09:25:40;;;;;;;33.58;31.60;;;;;;;19.51;45.54;102683.53;4926213;29;20050;-81
2021/12/20 09:28:09;;;;;;;33.28;30.88;;;;;;;19.52;45.75;102696.97;4927256;29;20040;-81
2021/12/20 09:30:35;;;;;;;33.15;30.67;;;;;;;19.55;45.64;102690.13;4901247;29;20031;-83
2021/12/20 09:33:02;;;;;;;32.72;30.70;;;;;;;19.56;45.31;102692.63;4902228;29;20063;-83
2021/12/20 09:35:27;;;;;;;33.22;31.10;;;;;;;19.58;45.49;102692.34;4882867;29;20076;-83
2021/12/20 09:37:53;;;;;;;33.00;31.08;;;;;;;19.59;46.02;102697.59;4909543;29;20111;-83
2021/12/20 09:40:31;;;;;;;34.55;32.35;;;;;;;19.61;45.71;102695.44;4878196;29;20040;-81
2021/12/20 09:42:58;;;;;;;32.50;30.30;;;;;;;19.63;46.42;102704.22;4911230;29;20035;-83
2021/12/20 09:45:24;;;;;;;33.58;31.77;;;;;;;19.65;46.53;102695.75;4924500;29;20042;-83
2021/12/20 09:47:50;;;;;;;33.80;31.60;;;;;;;19.66;46.46;102705.63;4895066;29;20044;-82
2021/12/20 09:50:17;;;;;;;34.08;31.60;;;;;;;19.69;46.43;102707.06;4892477;29;20035;-82
2021/12/20 09:52:43;;;;;;;32.90;30.50;;;;;;;19.70;46.25;102709.53;4895546;29;20073;-81
2021/12/20 09:55:10;;;;;;;33.20;31.35;;;;;;;19.72;46.53;102706.56;4892661;29;20044;-78
2021/12/20 09:57:37;;;;;;;33.67;31.88;;;;;;;19.75;46.76;102706.03;4896242;29;20473;-82
2021/12/20 10:00:07;;;;;;;33.53;31.50;;;;;;;19.77;46.62;102704.69;4912528;29;20039;-84
2021/12/20 10:02:32;;;;;;;33.00;31.17;;;;;;;19.78;46.82;102706.34;4894973;29;20107;-85
2021/12/20 10:04:58;;;;;;;33.97;31.77;;;;;;;19.80;46.46;102700.59;4889167;29;20039;-88
2021/12/20 10:07:25;;;;;;;34.47;32.22;;;;;;;19.82;46.75;102698.44;4892008;29;20028;-86
2021/12/20 10:09:52;;;;;;;34.47;32.47;;;;;;;19.83;46.72;102703.69;4899559;29;20043;-83
2021/12/20 10:12:26;;;;;;;33.88;31.90;;;;;;;19.85;47.04;102706.97;4892881;29;20517;-82
2021/12/20 10:14:57;;;;;;;33.80;31.77;;;;;;;19.88;46.94;102700.13;4908934;29;20032;-82
2021/12/20 10:17:31;;;;;;;34.85;32.83;;;;;;;19.89;46.95;102701.81;4895424;29;20035;-85
2021/12/20 10:20:12;;;;;;;33.65;31.75;;;;;;;19.90;46.79;102700.72;4898171;29;20042;-85
2021/12/20 10:22:37;;;;;;;35.05;32.88;;;;;;;19.92;47.08;102700.47;4914665;29;20040;-84
2021/12/20 10:25:19;;;;;;;34.08;32.28;;;;;;;19.94;46.71;102710.09;4865785;29;20054;-84
2021/12/20 10:27:45;;;;;;;34.80;32.85;;;;;;;19.95;46.58;102716.41;4892354;29;20084;-84
2021/12/20 10:30:36;;;;;;;34.47;32.65;;;;;;;19.97;46.80;102708.75;4927990;29;20614;-87
2021/12/20 10:33:04;;;;;;;33.55;31.75;;;;;;;19.99;46.88;102712.06;4910547;29;20042;-87
2021/12/20 10:35:39;;;;;;;34.67;32.88;;;;;;;20.01;47.03;102707.16;4895996;29;20131;-84
2021/12/20 10:38:43;;;;;;;33.17;31.38;;;;;;;20.01;46.70;102702.50;4927505;29;20032;-84
2021/12/20 10:41:16;;;;;;;33.00;31.08;;;;;;;20.03;46.95;102711.28;4911365;29;20058;-84
2021/12/20 10:43:51;;;;;;;34.67;32.72;;;;;;;20.05;46.86;102711.00;4928980;29;20496;-83
2021/12/20 10:46:21;;;;;;;35.70;33.75;;;;;;;20.05;46.91;102703.59;4914091;29;20043;-85
2021/12/20 10:48:50;;;;;;;34.78;32.92;;;;;;;20.07;46.87;102709.66;4925507;29;20036;-84
2021/12/20 10:51:19;;;;;;;35.17;33.28;;;;;;;20.08;46.45;102700.38;4910898;29;20070;-81
2021/12/20 10:53:47;;;;;;;35.25;33.08;;;;;;;20.09;46.83;102702.00;4927643;29;20029;-83
2021/12/20 10:56:12;;;;;;;35.67;33.47;;;;;;;20.11;46.10;102704.50;4929798;29;20047;-83
2021/12/20 10:58:39;;;;;;;37.25;34.97;;;;;;;20.12;45.38;102702.59;4909799;29;20032;-83
2021/12/20 11:04:06;;;;;;;33.28;31.48;;;;;;;20.14;45.44;102703.97;4931064;29;20032;-84
2021/12/20 11:09:20;;;;;;;36.05;34.20;;;;;;;20.15;44.96;102697.41;4926784;29;20094;-85
2021/12/20 11:12:25;;;;;;;34.20;32.05;;;;;;;20.15;45.03;102694.66;4905088;29;20031;-85
2021/12/20 11:14:56;;;;;;;35.67;33.28;;;;;;;20.16;44.81;102706.44;4878368;29;20052;-86
2021/12/20 11:17:22;;;;;;;35.25;33.15;;;;;;;20.16;44.72;102699.06;4926405;29;20055;-87
2021/12/20 11:19:53;;;;;;;36.15;33.67;;;;;;;20.17;44.60;102703.47;4923961;29;20036;-91
2021/12/20 11:22:24;;;;;;;35.58;33.40;;;;;;;20.17;44.97;102695.22;4910968;29;20078;-83
2021/12/20 11:25:05;;;;;;;34.35;32.25;;;;;;;20.19;44.38;102695.81;4929448;29;20043;-88